sensor_id;sensor_type;location;lat;lon;timestamp;pressure;altitude;pressure_sealevel;temperature;humidity
8523;BME280;4299;42.202;24.736;2023-01-27T00:02:18;98924.53;;;1.92;nan
8523;BME280;4299;42.202;24.736;2023-01-27T00:04:45;98935.84;;;1.93;nan
8523;BME280;4299;42.202;24.736;2023-01-27T00:07:11;98932.41;;;1.91;nan
8523;BME280;4299;42.202;24.736;2023-01-27T00:09:39;98934.03;;;1.95;nan
8523;BME280;4299;42.202;24.736;2023-01-27T00:12:12;98941.84;;;1.97;nan
8523;BME280;4299;42.202;24.736;2023-01-27T00:15:00;98942.00;;;1.90;nan
8523;BME280;4299;42.202;24.736;2023-01-27T00:17:28;98945.44;;;1.92;nan
8523;BME280;4299;42.202;24.736;2023-01-27T00:19:55;98953.91;;;2.01;nan
8523;BME280;4299;42.202;24.736;2023-01-27T00:22:21;98945.91;;;2.05;nan
8523;BME280;4299;42.202;24.736;2023-01-27T00:25:07;98941.72;;;2.00;nan
8523;BME280;4299;42.202;24.736;2023-01-27T00:27:34;98927.84;;;1.98;nan
8523;BME280;4299;42.202;24.736;2023-01-27T00:30:01;98919.09;;;1.99;nan
8523;BME280;4299;42.202;24.736;2023-01-27T00:32:29;98915.59;;;2.00;nan
8523;BME280;4299;42.202;24.736;2023-01-27T00:35:13;98917.31;;;2.01;nan
8523;BME280;4299;42.202;24.736;2023-01-27T00:37:40;98898.41;;;1.92;nan
8523;BME280;4299;42.202;24.736;2023-01-27T00:40:10;98901.81;;;1.94;nan
8523;BME280;4299;42.202;24.736;2023-01-27T00:42:37;98908.00;;;1.92;nan
8523;BME280;4299;42.202;24.736;2023-01-27T00:45:04;98905.41;;;1.90;nan
8523;BME280;4299;42.202;24.736;2023-01-27T00:47:48;98902.03;;;1.88;nan
8523;BME280;4299;42.202;24.736;2023-01-27T00:50:16;98916.84;;;1.88;nan
8523;BME280;4299;42.202;24.736;2023-01-27T00:52:43;98922.81;;;1.91;nan
8523;BME280;4299;42.202;24.736;2023-01-27T00:55:11;98921.03;;;1.93;nan
8523;BME280;4299;42.202;24.736;2023-01-27T00:57:40;98914.06;;;1.92;nan
8523;BME280;4299;42.202;24.736;2023-01-27T01:00:08;98908.66;;;1.99;nan
8523;BME280;4299;42.202;24.736;2023-01-27T01:02:36;98889.66;;;1.93;nan
8523;BME280;4299;42.202;24.736;2023-01-27T01:05:03;98871.59;;;1.86;nan
8523;BME280;4299;42.202;24.736;2023-01-27T01:07:30;98863.59;;;1.90;nan
8523;BME280;4299;42.202;24.736;2023-01-27T01:09:56;98866.22;;;1.90;nan
8523;BME280;4299;42.202;24.736;2023-01-27T01:12:24;98850.53;;;1.90;nan
8523;BME280;4299;42.202;24.736;2023-01-27T01:14:51;98834.16;;;1.85;nan
8523;BME280;4299;42.202;24.736;2023-01-27T01:17:18;98832.38;;;1.87;nan
8523;BME280;4299;42.202;24.736;2023-01-27T01:19:44;98835.88;;;1.86;nan
8523;BME280;4299;42.202;24.736;2023-01-27T01:22:11;98834.97;;;1.87;nan
8523;BME280;4299;42.202;24.736;2023-01-27T01:24:38;98880.34;;;1.85;nan
8523;BME280;4299;42.202;24.736;2023-01-27T01:27:04;98903.63;;;1.92;nan
8523;BME280;4299;42.202;24.736;2023-01-27T01:29:32;98899.78;;;2.04;nan
8523;BME280;4299;42.202;24.736;2023-01-27T01:31:59;98905.13;;;2.00;nan
8523;BME280;4299;42.202;24.736;2023-01-27T01:34:26;98912.16;;;1.98;nan
8523;BME280;4299;42.202;24.736;2023-01-27T01:36:53;98901.63;;;2.01;nan
8523;BME280;4299;42.202;24.736;2023-01-27T01:39:19;98890.31;;;2.00;nan
8523;BME280;4299;42.202;24.736;2023-01-27T01:41:46;98875.41;;;2.04;nan
8523;BME280;4299;42.202;24.736;2023-01-27T01:44:20;98865.03;;;2.01;nan
8523;BME280;4299;42.202;24.736;2023-01-27T01:46:48;98851.34;;;1.92;nan
8523;BME280;4299;42.202;24.736;2023-01-27T01:49:18;98852.78;;;2.03;nan
8523;BME280;4299;42.202;24.736;2023-01-27T01:51:48;98856.31;;;2.02;nan
8523;BME280;4299;42.202;24.736;2023-01-27T01:54:18;98858.00;;;2.03;nan
8523;BME280;4299;42.202;24.736;2023-01-27T01:56:48;98840.50;;;2.05;nan
8523;BME280;4299;42.202;24.736;2023-01-27T01:59:21;98835.28;;;2.05;nan
8523;BME280;4299;42.202;24.736;2023-01-27T02:01:52;98835.28;;;2.05;nan
8523;BME280;4299;42.202;24.736;2023-01-27T02:04:22;98826.53;;;2.06;nan
8523;BME280;4299;42.202;24.736;2023-01-27T02:06:55;98832.72;;;2.03;nan
8523;BME280;4299;42.202;24.736;2023-01-27T02:09:25;98838.81;;;2.04;nan
8523;BME280;4299;42.202;24.736;2023-01-27T02:11:53;98830.16;;;2.02;nan
8523;BME280;4299;42.202;24.736;2023-01-27T02:14:20;98830.16;;;2.02;nan
8523;BME280;4299;42.202;24.736;2023-01-27T02:16:46;98828.25;;;2.07;nan
8523;BME280;4299;42.202;24.736;2023-01-27T02:19:21;98816.88;;;2.08;nan
8523;BME280;4299;42.202;24.736;2023-01-27T02:21:51;98819.59;;;2.05;nan
8523;BME280;4299;42.202;24.736;2023-01-27T02:24:22;98799.63;;;2.04;nan
8523;BME280;4299;42.202;24.736;2023-01-27T02:26:55;98789.94;;;2.06;nan
8523;BME280;4299;42.202;24.736;2023-01-27T02:29:22;98776.09;;;2.04;nan
8523;BME280;4299;42.202;24.736;2023-01-27T02:31:48;98769.16;;;2.03;nan
8523;BME280;4299;42.202;24.736;2023-01-27T02:34:16;98769.94;;;2.05;nan
8523;BME280;4299;42.202;24.736;2023-01-27T02:36:49;98767.22;;;2.08;nan
8523;BME280;4299;42.202;24.736;2023-01-27T02:39:19;98772.44;;;2.08;nan
8523;BME280;4299;42.202;24.736;2023-01-27T02:41:49;98783.59;;;2.13;nan
8523;BME280;4299;42.202;24.736;2023-01-27T02:44:18;98795.56;;;2.20;nan
8523;BME280;4299;42.202;24.736;2023-01-27T02:46:45;98787.72;;;2.20;nan
8523;BME280;4299;42.202;24.736;2023-01-27T02:49:12;98794.56;;;2.24;nan
8523;BME280;4299;42.202;24.736;2023-01-27T02:51:38;98784.13;;;2.24;nan
8523;BME280;4299;42.202;24.736;2023-01-27T02:54:05;98786.72;;;2.24;nan
8523;BME280;4299;42.202;24.736;2023-01-27T02:56:32;98785.81;;;2.25;nan
8523;BME280;4299;42.202;24.736;2023-01-27T02:58:58;98776.28;;;2.24;nan
8523;BME280;4299;42.202;24.736;2023-01-27T03:01:26;98785.69;;;2.28;nan
8523;BME280;4299;42.202;24.736;2023-01-27T03:03:56;98785.69;;;2.28;nan
8523;BME280;4299;42.202;24.736;2023-01-27T03:06:23;98772.53;;;2.31;nan
8523;BME280;4299;42.202;24.736;2023-01-27T03:08:50;98768.13;;;2.33;nan
8523;BME280;4299;42.202;24.736;2023-01-27T03:11:17;98762.03;;;2.32;nan
8523;BME280;4299;42.202;24.736;2023-01-27T03:14:04;98759.56;;;2.28;nan
8523;BME280;4299;42.202;24.736;2023-01-27T03:16:32;98744.09;;;2.22;nan
8523;BME280;4299;42.202;24.736;2023-01-27T03:19:16;98754.44;;;2.25;nan
8523;BME280;4299;42.202;24.736;2023-01-27T03:21:43;98745.78;;;2.23;nan
8523;BME280;4299;42.202;24.736;2023-01-27T03:24:10;98745.69;;;2.26;nan
8523;BME280;4299;42.202;24.736;2023-01-27T03:26:37;98755.31;;;2.25;nan
8523;BME280;4299;42.202;24.736;2023-01-27T03:29:03;98769.06;;;2.30;nan
8523;BME280;4299;42.202;24.736;2023-01-27T03:31:48;98792.78;;;2.26;nan
8523;BME280;4299;42.202;24.736;2023-01-27T03:34:15;98784.91;;;2.26;nan
8523;BME280;4299;42.202;24.736;2023-01-27T03:36:42;98777.75;;;2.31;nan
8523;BME280;4299;42.202;24.736;2023-01-27T03:39:28;98784.00;;;2.27;nan
8523;BME280;4299;42.202;24.736;2023-01-27T03:42:12;98765.59;;;2.30;nan
8523;BME280;4299;42.202;24.736;2023-01-27T03:44:57;98769.91;;;2.31;nan
8523;BME280;4299;42.202;24.736;2023-01-27T03:47:42;98773.34;;;2.33;nan
8523;BME280;4299;42.202;24.736;2023-01-27T03:50:09;98774.19;;;2.33;nan
8523;BME280;4299;42.202;24.736;2023-01-27T03:52:43;98771.63;;;2.32;nan
8523;BME280;4299;42.202;24.736;2023-01-27T03:55:27;98768.16;;;2.31;nan
8523;BME280;4299;42.202;24.736;2023-01-27T03:57:54;98768.13;;;2.33;nan
8523;BME280;4299;42.202;24.736;2023-01-27T04:00:21;98775.84;;;2.36;nan
8523;BME280;4299;42.202;24.736;2023-01-27T04:02:49;98774.72;;;2.43;nan
8523;BME280;4299;42.202;24.736;2023-01-27T04:05:33;98770.28;;;2.45;nan
8523;BME280;4299;42.202;24.736;2023-01-27T04:08:17;98764.25;;;2.43;nan
8523;BME280;4299;42.202;24.736;2023-01-27T04:10:44;98761.63;;;2.43;nan
8523;BME280;4299;42.202;24.736;2023-01-27T04:13:30;98741.75;;;2.39;nan
8523;BME280;4299;42.202;24.736;2023-01-27T04:15:56;98746.97;;;2.39;nan
8523;BME280;4299;42.202;24.736;2023-01-27T04:18:24;98741.84;;;2.36;nan
8523;BME280;4299;42.202;24.736;2023-01-27T04:20:51;98738.41;;;2.34;nan
8523;BME280;4299;42.202;24.736;2023-01-27T04:23:17;98735.88;;;2.32;nan
8523;BME280;4299;42.202;24.736;2023-01-27T04:25:44;98736.75;;;2.33;nan
8523;BME280;4299;42.202;24.736;2023-01-27T04:28:11;98728.81;;;2.34;nan
8523;BME280;4299;42.202;24.736;2023-01-27T04:30:38;98733.09;;;2.37;nan
8523;BME280;4299;42.202;24.736;2023-01-27T04:33:04;98738.22;;;2.40;nan
8523;BME280;4299;42.202;24.736;2023-01-27T04:35:35;98739.91;;;2.41;nan
8523;BME280;4299;42.202;24.736;2023-01-27T04:38:02;98739.91;;;2.41;nan
8523;BME280;4299;42.202;24.736;2023-01-27T04:40:29;98736.38;;;2.42;nan
8523;BME280;4299;42.202;24.736;2023-01-27T04:42:56;98723.25;;;2.44;nan
8523;BME280;4299;42.202;24.736;2023-01-27T04:45:23;98724.94;;;2.46;nan
8523;BME280;4299;42.202;24.736;2023-01-27T04:47:50;98726.56;;;2.49;nan
8523;BME280;4299;42.202;24.736;2023-01-27T04:50:17;98730.03;;;2.49;nan
8523;BME280;4299;42.202;24.736;2023-01-27T04:52:45;98735.22;;;2.51;nan
8523;BME280;4299;42.202;24.736;2023-01-27T04:55:11;98734.25;;;2.53;nan
8523;BME280;4299;42.202;24.736;2023-01-27T04:57:38;98735.84;;;2.57;nan
8523;BME280;4299;42.202;24.736;2023-01-27T05:00:06;98735.75;;;2.60;nan
8523;BME280;4299;42.202;24.736;2023-01-27T05:02:32;98725.28;;;2.60;nan
8523;BME280;4299;42.202;24.736;2023-01-27T05:04:59;98720.06;;;2.60;nan
8523;BME280;4299;42.202;24.736;2023-01-27T05:07:29;98714.81;;;2.60;nan
8523;BME280;4299;42.202;24.736;2023-01-27T05:09:57;98730.38;;;2.63;nan
8523;BME280;4299;42.202;24.736;2023-01-27T05:12:24;98732.09;;;2.64;nan
8523;BME280;4299;42.202;24.736;2023-01-27T05:14:50;98737.47;;;2.61;nan
8523;BME280;4299;42.202;24.736;2023-01-27T05:17:17;98746.09;;;2.63;nan
8523;BME280;4299;42.202;24.736;2023-01-27T05:19:44;98757.31;;;2.67;nan
8523;BME280;4299;42.202;24.736;2023-01-27T05:22:11;98747.69;;;2.67;nan
8523;BME280;4299;42.202;24.736;2023-01-27T05:24:37;98765.84;;;2.72;nan
8523;BME280;4299;42.202;24.736;2023-01-27T05:27:06;98763.28;;;2.70;nan
8523;BME280;4299;42.202;24.736;2023-01-27T05:29:32;98773.63;;;2.73;nan
8523;BME280;4299;42.202;24.736;2023-01-27T05:32:01;98766.59;;;2.76;nan
8523;BME280;4299;42.202;24.736;2023-01-27T05:34:28;98775.44;;;2.71;nan
8523;BME280;4299;42.202;24.736;2023-01-27T05:36:55;98771.19;;;2.69;nan
8523;BME280;4299;42.202;24.736;2023-01-27T05:39:21;98768.50;;;2.70;nan
8523;BME280;4299;42.202;24.736;2023-01-27T05:41:48;98770.34;;;2.68;nan
8523;BME280;4299;42.202;24.736;2023-01-27T05:44:16;98774.50;;;2.74;nan
8523;BME280;4299;42.202;24.736;2023-01-27T05:46:43;98775.25;;;2.78;nan
8523;BME280;4299;42.202;24.736;2023-01-27T05:49:10;98771.69;;;2.79;nan
8523;BME280;4299;42.202;24.736;2023-01-27T05:51:38;98769.09;;;2.79;nan
8523;BME280;4299;42.202;24.736;2023-01-27T05:54:06;98776.94;;;2.79;nan
8523;BME280;4299;42.202;24.736;2023-01-27T05:56:33;98772.56;;;2.79;nan
8523;BME280;4299;42.202;24.736;2023-01-27T05:59:00;98773.31;;;2.83;nan
8523;BME280;4299;42.202;24.736;2023-01-27T06:01:30;98768.19;;;2.80;nan
8523;BME280;4299;42.202;24.736;2023-01-27T06:03:57;98769.16;;;2.77;nan
8523;BME280;4299;42.202;24.736;2023-01-27T06:06:26;98770.13;;;2.74;nan
8523;BME280;4299;42.202;24.736;2023-01-27T06:08:53;98766.66;;;2.74;nan
8523;BME280;4299;42.202;24.736;2023-01-27T06:11:20;98759.75;;;2.71;nan
8523;BME280;4299;42.202;24.736;2023-01-27T06:13:48;98754.53;;;2.71;nan
8523;BME280;4299;42.202;24.736;2023-01-27T06:16:17;98747.38;;;2.77;nan
8523;BME280;4299;42.202;24.736;2023-01-27T06:18:46;98742.88;;;2.80;nan
8523;BME280;4299;42.202;24.736;2023-01-27T06:21:14;98730.59;;;2.82;nan
8523;BME280;4299;42.202;24.736;2023-01-27T06:23:41;98738.44;;;2.82;nan
8523;BME280;4299;42.202;24.736;2023-01-27T06:26:10;98741.91;;;2.83;nan
8523;BME280;4299;42.202;24.736;2023-01-27T06:28:37;98759.31;;;2.84;nan
8523;BME280;4299;42.202;24.736;2023-01-27T06:31:05;98764.56;;;2.84;nan
8523;BME280;4299;42.202;24.736;2023-01-27T06:33:33;98767.84;;;2.89;nan
8523;BME280;4299;42.202;24.736;2023-01-27T06:36:02;98765.81;;;2.97;nan
8523;BME280;4299;42.202;24.736;2023-01-27T06:38:30;98770.81;;;3.03;nan
8523;BME280;4299;42.202;24.736;2023-01-27T06:40:56;98770.47;;;3.12;nan
8523;BME280;4299;42.202;24.736;2023-01-27T06:43:23;98772.19;;;3.13;nan
8523;BME280;4299;42.202;24.736;2023-01-27T06:45:51;98771.34;;;3.12;nan
8523;BME280;4299;42.202;24.736;2023-01-27T06:48:18;98765.25;;;3.12;nan
8523;BME280;4299;42.202;24.736;2023-01-27T06:50:45;98766.94;;;3.13;nan
8523;BME280;4299;42.202;24.736;2023-01-27T06:53:13;98763.28;;;3.17;nan
8523;BME280;4299;42.202;24.736;2023-01-27T06:55:39;98758.97;;;3.16;nan
8523;BME280;4299;42.202;24.736;2023-01-27T06:58:08;98761.91;;;3.07;nan
8523;BME280;4299;42.202;24.736;2023-01-27T07:00:36;98761.72;;;3.13;nan
8523;BME280;4299;42.202;24.736;2023-01-27T07:03:04;98762.50;;;3.15;nan
8523;BME280;4299;42.202;24.736;2023-01-27T07:05:31;98763.19;;;3.20;nan
8523;BME280;4299;42.202;24.736;2023-01-27T07:07:58;98758.72;;;3.22;nan
8523;BME280;4299;42.202;24.736;2023-01-27T07:10:26;98780.38;;;3.27;nan
8523;BME280;4299;42.202;24.736;2023-01-27T07:13:03;98776.03;;;3.26;nan
8523;BME280;4299;42.202;24.736;2023-01-27T07:15:30;98771.81;;;3.22;nan
8523;BME280;4299;42.202;24.736;2023-01-27T07:17:57;98776.94;;;3.25;nan
8523;BME280;4299;42.202;24.736;2023-01-27T07:20:24;98767.94;;;3.32;nan
8523;BME280;4299;42.202;24.736;2023-01-27T07:22:52;98773.09;;;3.35;nan
8523;BME280;4299;42.202;24.736;2023-01-27T07:25:19;98779.91;;;3.39;nan
8523;BME280;4299;42.202;24.736;2023-01-27T07:27:47;98769.31;;;3.42;nan
8523;BME280;4299;42.202;24.736;2023-01-27T07:30:15;98774.41;;;3.45;nan
8523;BME280;4299;42.202;24.736;2023-01-27T07:32:42;98779.56;;;3.48;nan
8523;BME280;4299;42.202;24.736;2023-01-27T07:35:08;98772.50;;;3.50;nan
8523;BME280;4299;42.202;24.736;2023-01-27T07:37:35;98777.72;;;3.50;nan
8523;BME280;4299;42.202;24.736;2023-01-27T07:40:02;98775.88;;;3.52;nan
8523;BME280;4299;42.202;24.736;2023-01-27T07:42:29;98775.63;;;3.59;nan
8523;BME280;4299;42.202;24.736;2023-01-27T07:44:57;98775.44;;;3.65;nan
8523;BME280;4299;42.202;24.736;2023-01-27T07:47:23;98766.63;;;3.66;nan
8523;BME280;4299;42.202;24.736;2023-01-27T07:49:50;98773.47;;;3.70;nan
8523;BME280;4299;42.202;24.736;2023-01-27T07:52:17;98767.13;;;3.75;nan
8523;BME280;4299;42.202;24.736;2023-01-27T07:54:43;98759.84;;;3.82;nan
8523;BME280;4299;42.202;24.736;2023-01-27T07:57:10;98765.66;;;3.90;nan
8523;BME280;4299;42.202;24.736;2023-01-27T07:59:37;98760.28;;;3.93;nan
8523;BME280;4299;42.202;24.736;2023-01-27T08:02:05;98763.69;;;3.95;nan
8523;BME280;4299;42.202;24.736;2023-01-27T08:04:32;98757.66;;;3.93;nan
8523;BME280;4299;42.202;24.736;2023-01-27T08:06:59;98763.69;;;3.95;nan
8523;BME280;4299;42.202;24.736;2023-01-27T08:09:26;98765.28;;;3.99;nan
8523;BME280;4299;42.202;24.736;2023-01-27T08:11:52;98763.47;;;4.01;nan
8523;BME280;4299;42.202;24.736;2023-01-27T08:14:18;98761.34;;;4.09;nan
8523;BME280;4299;42.202;24.736;2023-01-27T08:16:45;98761.09;;;4.15;nan
8523;BME280;4299;42.202;24.736;2023-01-27T08:19:13;98762.66;;;4.19;nan
8523;BME280;4299;42.202;24.736;2023-01-27T08:21:39;98763.47;;;4.21;nan
8523;BME280;4299;42.202;24.736;2023-01-27T08:24:06;98760.47;;;4.30;nan
8523;BME280;4299;42.202;24.736;2023-01-27T08:26:34;98758.34;;;4.39;nan
8523;BME280;4299;42.202;24.736;2023-01-27T08:29:01;98756.25;;;4.47;nan
8523;BME280;4299;42.202;24.736;2023-01-27T08:31:27;98753.28;;;4.54;nan
8523;BME280;4299;42.202;24.736;2023-01-27T08:33:54;98751.41;;;4.58;nan
8523;BME280;4299;42.202;24.736;2023-01-27T08:36:23;98748.63;;;4.61;nan
8523;BME280;4299;42.202;24.736;2023-01-27T08:38:50;98739.25;;;4.55;nan
8523;BME280;4299;42.202;24.736;2023-01-27T08:41:18;98733.09;;;4.56;nan
8523;BME280;4299;42.202;24.736;2023-01-27T08:43:45;98728.75;;;4.55;nan
8523;BME280;4299;42.202;24.736;2023-01-27T08:46:12;98720.69;;;4.60;nan
8523;BME280;4299;42.202;24.736;2023-01-27T08:48:40;98717.00;;;4.64;nan
8523;BME280;4299;42.202;24.736;2023-01-27T08:51:07;98723.63;;;4.73;nan
8523;BME280;4299;42.202;24.736;2023-01-27T08:53:36;98728.66;;;4.77;nan
8523;BME280;4299;42.202;24.736;2023-01-27T08:56:04;98729.38;;;4.81;nan
8523;BME280;4299;42.202;24.736;2023-01-27T08:58:32;98740.47;;;4.87;nan
8523;BME280;4299;42.202;24.736;2023-01-27T09:00:59;98736.75;;;4.91;nan
8523;BME280;4299;42.202;24.736;2023-01-27T09:03:26;98748.97;;;4.92;nan
8523;BME280;4299;42.202;24.736;2023-01-27T09:05:52;98750.81;;;4.90;nan
8523;BME280;4299;42.202;24.736;2023-01-27T09:08:19;98752.91;;;4.82;nan
8523;BME280;4299;42.202;24.736;2023-01-27T09:10:47;98748.69;;;4.80;nan
8523;BME280;4299;42.202;24.736;2023-01-27T09:13:13;98758.34;;;4.79;nan
8523;BME280;4299;42.202;24.736;2023-01-27T09:15:41;98747.25;;;4.73;nan
8523;BME280;4299;42.202;24.736;2023-01-27T09:18:08;98756.91;;;4.72;nan
8523;BME280;4299;42.202;24.736;2023-01-27T09:20:34;98752.34;;;4.76;nan
8523;BME280;4299;42.202;24.736;2023-01-27T09:23:02;98749.59;;;4.79;nan
8523;BME280;4299;42.202;24.736;2023-01-27T09:25:28;98749.53;;;4.80;nan
8523;BME280;4299;42.202;24.736;2023-01-27T09:27:56;98737.03;;;4.85;nan
8523;BME280;4299;42.202;24.736;2023-01-27T09:30:24;98737.84;;;4.87;nan
8523;BME280;4299;42.202;24.736;2023-01-27T09:32:51;98724.84;;;4.84;nan
8523;BME280;4299;42.202;24.736;2023-01-27T09:35:18;98714.34;;;4.84;nan
8523;BME280;4299;42.202;24.736;2023-01-27T09:37:48;98722.88;;;4.89;nan
8523;BME280;4299;42.202;24.736;2023-01-27T09:40:28;98711.81;;;5.01;nan
8523;BME280;4299;42.202;24.736;2023-01-27T09:43:27;98706.13;;;5.11;nan
8523;BME280;4299;42.202;24.736;2023-01-27T09:46:10;98698.25;;;5.11;nan
8523;BME280;4299;42.202;24.736;2023-01-27T09:48:52;98697.03;;;5.18;nan
8523;BME280;4299;42.202;24.736;2023-01-27T09:51:30;98687.38;;;5.18;nan
8523;BME280;4299;42.202;24.736;2023-01-27T09:56:55;98692.31;;;5.43;nan
8523;BME280;4299;42.202;24.736;2023-01-27T09:59:42;98689.88;;;5.57;nan
8523;BME280;4299;42.202;24.736;2023-01-27T10:02:26;98697.25;;;5.68;nan
8523;BME280;4299;42.202;24.736;2023-01-27T10:05:08;98701.47;;;5.70;nan
8523;BME280;4299;42.202;24.736;2023-01-27T10:08:01;98700.06;;;5.63;nan
8523;BME280;4299;42.202;24.736;2023-01-27T10:10:40;98702.09;;;5.58;nan
8523;BME280;4299;42.202;24.736;2023-01-27T10:13:17;98703.78;;;5.59;nan
8523;BME280;4299;42.202;24.736;2023-01-27T10:16:11;98703.16;;;5.54;nan
8523;BME280;4299;42.202;24.736;2023-01-27T10:18:53;98686.78;;;5.66;nan
8523;BME280;4299;42.202;24.736;2023-01-27T10:21:31;98681.69;;;5.80;nan
8523;BME280;4299;42.202;24.736;2023-01-27T10:24:09;98690.03;;;5.90;nan
8523;BME280;4299;42.202;24.736;2023-01-27T10:26:40;98685.13;;;6.00;nan
8523;BME280;4299;42.202;24.736;2023-01-27T10:29:09;98680.28;;;6.09;nan
8523;BME280;4299;42.202;24.736;2023-01-27T10:31:46;98678.63;;;6.07;nan
8523;BME280;4299;42.202;24.736;2023-01-27T10:34:24;98675.56;;;5.99;nan
8523;BME280;4299;42.202;24.736;2023-01-27T10:37:03;98668.75;;;5.95;nan
8523;BME280;4299;42.202;24.736;2023-01-27T10:39:39;98665.63;;;5.86;nan
8523;BME280;4299;42.202;24.736;2023-01-27T10:42:20;98655.25;;;5.83;nan
8523;BME280;4299;42.202;24.736;2023-01-27T10:45:05;98652.16;;;5.75;nan
8523;BME280;4299;42.202;24.736;2023-01-27T10:47:50;98653.28;;;5.70;nan
8523;BME280;4299;42.202;24.736;2023-01-27T10:50:24;98649.19;;;5.64;nan
8523;BME280;4299;42.202;24.736;2023-01-27T10:52:58;98645.81;;;5.62;nan
8523;BME280;4299;42.202;24.736;2023-01-27T10:55:30;98633.59;;;5.61;nan
8523;BME280;4299;42.202;24.736;2023-01-27T10:58:05;98630.06;;;5.62;nan
8523;BME280;4299;42.202;24.736;2023-01-27T11:00:39;98624.00;;;5.60;nan
8523;BME280;4299;42.202;24.736;2023-01-27T11:03:12;98625.41;;;5.67;nan
8523;BME280;4299;42.202;24.736;2023-01-27T11:05:49;98629.75;;;5.68;nan
8523;BME280;4299;42.202;24.736;2023-01-27T11:08:19;98621.22;;;5.80;nan
8523;BME280;4299;42.202;24.736;2023-01-27T11:10:50;98619.56;;;5.97;nan
8523;BME280;4299;42.202;24.736;2023-01-27T11:13:45;98608.91;;;6.15;nan
8523;BME280;4299;42.202;24.736;2023-01-27T11:16:14;98608.97;;;6.31;nan
8523;BME280;4299;42.202;24.736;2023-01-27T11:18:43;98604.06;;;6.41;nan
8523;BME280;4299;42.202;24.736;2023-01-27T11:21:16;98597.28;;;6.52;nan
8523;BME280;4299;42.202;24.736;2023-01-27T11:23:47;98592.75;;;6.72;nan
8523;BME280;4299;42.202;24.736;2023-01-27T11:26:22;98595.13;;;6.92;nan
8523;BME280;4299;42.202;24.736;2023-01-27T11:28:55;98598.19;;;7.00;nan
8523;BME280;4299;42.202;24.736;2023-01-27T11:31:33;98600.91;;;7.14;nan
8523;BME280;4299;42.202;24.736;2023-01-27T11:34:09;98603.59;;;7.28;nan
8523;BME280;4299;42.202;24.736;2023-01-27T11:36:37;98605.28;;;7.45;nan
8523;BME280;4299;42.202;24.736;2023-01-27T11:39:04;98605.09;;;7.48;nan
8523;BME280;4299;42.202;24.736;2023-01-27T11:41:33;98617.81;;;7.56;nan
8523;BME280;4299;42.202;24.736;2023-01-27T11:44:05;98618.69;;;7.40;nan
8523;BME280;4299;42.202;24.736;2023-01-27T11:46:35;98623.34;;;7.21;nan
8523;BME280;4299;42.202;24.736;2023-01-27T11:49:03;98629.25;;;7.09;nan
8523;BME280;4299;42.202;24.736;2023-01-27T11:51:34;98618.56;;;6.96;nan
8523;BME280;4299;42.202;24.736;2023-01-27T11:54:05;98614.34;;;6.94;nan
8523;BME280;4299;42.202;24.736;2023-01-27T11:56:35;98603.03;;;6.92;nan
8523;BME280;4299;42.202;24.736;2023-01-27T11:59:06;98591.72;;;6.90;nan
8523;BME280;4299;42.202;24.736;2023-01-27T12:01:42;98593.00;;;6.83;nan
8523;BME280;4299;42.202;24.736;2023-01-27T12:04:18;98594.84;;;6.81;nan
8523;BME280;4299;42.202;24.736;2023-01-27T12:06:48;98596.13;;;6.74;nan
8523;BME280;4299;42.202;24.736;2023-01-27T12:09:35;98594.75;;;6.67;nan
8523;BME280;4299;42.202;24.736;2023-01-27T12:12:19;98593.25;;;6.62;nan
8523;BME280;4299;42.202;24.736;2023-01-27T12:14:48;98595.59;;;6.51;nan
8523;BME280;4299;42.202;24.736;2023-01-27T12:17:21;98593.13;;;6.48;nan
8523;BME280;4299;42.202;24.736;2023-01-27T12:19:51;98591.44;;;6.47;nan
8523;BME280;4299;42.202;24.736;2023-01-27T12:22:23;98594.41;;;6.41;nan
8523;BME280;4299;42.202;24.736;2023-01-27T12:24:54;98583.34;;;6.50;nan
8523;BME280;4299;42.202;24.736;2023-01-27T12:27:23;98581.94;;;6.60;nan
8523;BME280;4299;42.202;24.736;2023-01-27T12:29:53;98575.75;;;6.61;nan
8523;BME280;4299;42.202;24.736;2023-01-27T12:32:23;98580.06;;;6.62;nan
8523;BME280;4299;42.202;24.736;2023-01-27T12:34:59;98572.00;;;6.65;nan
8523;BME280;4299;42.202;24.736;2023-01-27T12:37:30;98581.66;;;6.65;nan
8523;BME280;4299;42.202;24.736;2023-01-27T12:39:59;98576.25;;;6.84;nan
8523;BME280;4299;42.202;24.736;2023-01-27T12:42:39;98572.66;;;7.16;nan
8523;BME280;4299;42.202;24.736;2023-01-27T12:45:24;98562.94;;;7.32;nan
8523;BME280;4299;42.202;24.736;2023-01-27T12:47:57;98576.16;;;7.47;nan
8523;BME280;4299;42.202;24.736;2023-01-27T12:50:28;98578.28;;;7.56;nan
8523;BME280;4299;42.202;24.736;2023-01-27T12:53:10;98570.31;;;7.71;nan
8523;BME280;4299;42.202;24.736;2023-01-27T12:55:39;98575.13;;;7.79;nan
8523;BME280;4299;42.202;24.736;2023-01-27T12:58:19;98580.59;;;7.90;nan
8523;BME280;4299;42.202;24.736;2023-01-27T13:00:51;98579.69;;;8.05;nan
8523;BME280;4299;42.202;24.736;2023-01-27T13:03:19;98580.63;;;8.18;nan
8523;BME280;4299;42.202;24.736;2023-01-27T13:05:51;98578.97;;;8.17;nan
8523;BME280;4299;42.202;24.736;2023-01-27T13:08:21;98580.63;;;8.04;nan
8523;BME280;4299;42.202;24.736;2023-01-27T13:10:50;98579.47;;;7.80;nan
8523;BME280;4299;42.202;24.736;2023-01-27T13:13:20;98584.72;;;7.66;nan
8523;BME280;4299;42.202;24.736;2023-01-27T13:15:53;98574.63;;;7.58;nan
8523;BME280;4299;42.202;24.736;2023-01-27T13:18:24;98570.88;;;7.47;nan
8523;BME280;4299;42.202;24.736;2023-01-27T13:20:59;98567.84;;;7.38;nan
8523;BME280;4299;42.202;24.736;2023-01-27T13:23:29;98567.50;;;7.45;nan
8523;BME280;4299;42.202;24.736;2023-01-27T13:26:07;98567.50;;;7.45;nan
8523;BME280;4299;42.202;24.736;2023-01-27T13:28:39;98570.72;;;7.50;nan
8523;BME280;4299;42.202;24.736;2023-01-27T13:31:11;98574.97;;;7.52;nan
8523;BME280;4299;42.202;24.736;2023-01-27T13:33:43;98580.75;;;7.59;nan
8523;BME280;4299;42.202;24.736;2023-01-27T13:36:22;98574.41;;;7.61;nan
8523;BME280;4299;42.202;24.736;2023-01-27T13:38:56;98582.59;;;7.57;nan
8523;BME280;4299;42.202;24.736;2023-01-27T13:41:31;98585.16;;;7.58;nan
8523;BME280;4299;42.202;24.736;2023-01-27T13:44:02;98580.34;;;7.51;nan
8523;BME280;4299;42.202;24.736;2023-01-27T13:46:36;98577.53;;;7.38;nan
8523;BME280;4299;42.202;24.736;2023-01-27T13:49:15;98575.88;;;7.21;nan
8523;BME280;4299;42.202;24.736;2023-01-27T13:51:44;98563.59;;;7.06;nan
8523;BME280;4299;42.202;24.736;2023-01-27T13:54:13;98571.66;;;7.03;nan
8523;BME280;4299;42.202;24.736;2023-01-27T13:56:51;98577.25;;;6.97;nan
8523;BME280;4299;42.202;24.736;2023-01-27T13:59:38;98579.81;;;6.98;nan
8523;BME280;4299;42.202;24.736;2023-01-27T14:02:21;98588.00;;;6.94;nan
8523;BME280;4299;42.202;24.736;2023-01-27T14:05:03;98595.28;;;6.89;nan
8523;BME280;4299;42.202;24.736;2023-01-27T14:07:40;98597.66;;;6.78;nan